sensor_id;sensor_type;location;lat;lon;timestamp;P1;durP1;ratioP1;P2;durP2;ratioP2
36709;SDS011;22694;51.040;3.684;2022-09-20T00:00:42;1.63;;;0.80;;
36709;SDS011;22694;51.040;3.684;2022-09-20T00:03:10;2.50;;;0.90;;
36709;SDS011;22694;51.040;3.684;2022-09-20T00:05:37;1.25;;;0.98;;
36709;SDS011;22694;51.040;3.684;2022-09-20T00:08:05;1.67;;;0.93;;
36709;SDS011;22694;51.040;3.684;2022-09-20T00:10:34;1.90;;;0.90;;
36709;SDS011;22694;51.040;3.684;2022-09-20T00:13:03;1.67;;;0.73;;
36709;SDS011;22694;51.040;3.684;2022-09-20T00:15:30;1.65;;;1.02;;
36709;SDS011;22694;51.040;3.684;2022-09-20T00:17:56;1.92;;;0.80;;
36709;SDS011;22694;51.040;3.684;2022-09-20T00:20:22;1.67;;;1.05;;
36709;SDS011;22694;51.040;3.684;2022-09-20T00:22:49;1.90;;;1.00;;
36709;SDS011;22694;51.040;3.684;2022-09-20T00:25:15;1.90;;;0.80;;
36709;SDS011;22694;51.040;3.684;2022-09-20T00:27:42;2.20;;;1.05;;
36709;SDS011;22694;51.040;3.684;2022-09-20T00:30:10;1.90;;;0.95;;
36709;SDS011;22694;51.040;3.684;2022-09-20T00:32:37;2.63;;;0.80;;
36709;SDS011;22694;51.040;3.684;2022-09-20T00:35:04;2.00;;;1.17;;
36709;SDS011;22694;51.040;3.684;2022-09-20T00:37:38;1.33;;;0.95;;
36709;SDS011;22694;51.040;3.684;2022-09-20T00:40:06;2.22;;;0.98;;
36709;SDS011;22694;51.040;3.684;2022-09-20T00:42:33;1.05;;;0.80;;
36709;SDS011;22694;51.040;3.684;2022-09-20T00:47:31;0.63;;;0.60;;
36709;SDS011;22694;51.040;3.684;2022-09-20T00:50:40;2.28;;;1.00;;
36709;SDS011;22694;51.040;3.684;2022-09-20T00:55:48;1.75;;;0.80;;
36709;SDS011;22694;51.040;3.684;2022-09-20T00:58:19;0.93;;;0.80;;
36709;SDS011;22694;51.040;3.684;2022-09-20T01:00:48;2.42;;;1.00;;
36709;SDS011;22694;51.040;3.684;2022-09-20T01:03:16;1.70;;;0.90;;
36709;SDS011;22694;51.040;3.684;2022-09-20T01:05:47;1.50;;;0.80;;
36709;SDS011;22694;51.040;3.684;2022-09-20T01:08:14;1.40;;;1.08;;
36709;SDS011;22694;51.040;3.684;2022-09-20T01:10:41;1.50;;;0.90;;
36709;SDS011;22694;51.040;3.684;2022-09-20T01:13:07;1.67;;;0.95;;
36709;SDS011;22694;51.040;3.684;2022-09-20T01:15:33;2.45;;;0.98;;
36709;SDS011;22694;51.040;3.684;2022-09-20T01:18:00;3.45;;;1.30;;
36709;SDS011;22694;51.040;3.684;2022-09-20T01:20:30;2.03;;;1.00;;
36709;SDS011;22694;51.040;3.684;2022-09-20T01:23:06;2.35;;;1.10;;
36709;SDS011;22694;51.040;3.684;2022-09-20T01:28:54;1.42;;;1.15;;
36709;SDS011;22694;51.040;3.684;2022-09-20T01:32:00;2.63;;;1.17;;
36709;SDS011;22694;51.040;3.684;2022-09-20T01:37:16;1.80;;;1.10;;
36709;SDS011;22694;51.040;3.684;2022-09-20T01:42:37;2.60;;;1.23;;
36709;SDS011;22694;51.040;3.684;2022-09-20T01:48:26;2.92;;;1.00;;
36709;SDS011;22694;51.040;3.684;2022-09-20T01:53:52;1.67;;;1.17;;
36709;SDS011;22694;51.040;3.684;2022-09-20T01:59:49;2.80;;;1.20;;
36709;SDS011;22694;51.040;3.684;2022-09-20T02:02:31;2.10;;;0.82;;
36709;SDS011;22694;51.040;3.684;2022-09-20T02:46:25;1.73;;;1.42;;
36709;SDS011;22694;51.040;3.684;2022-09-20T02:52:10;1.92;;;1.52;;
36709;SDS011;22694;51.040;3.684;2022-09-20T02:57:32;3.20;;;1.55;;
36709;SDS011;22694;51.040;3.684;2022-09-20T03:00:05;1.67;;;1.35;;
36709;SDS011;22694;51.040;3.684;2022-09-20T03:06:05;1.95;;;1.45;;
36709;SDS011;22694;51.040;3.684;2022-09-20T03:08:44;1.70;;;1.40;;
36709;SDS011;22694;51.040;3.684;2022-09-20T03:14:39;1.40;;;1.30;;
36709;SDS011;22694;51.040;3.684;2022-09-20T03:46:44;1.58;;;1.48;;
36709;SDS011;22694;51.040;3.684;2022-09-20T03:52:11;2.97;;;1.30;;
36709;SDS011;22694;51.040;3.684;2022-09-20T04:00:35;2.45;;;1.42;;
36709;SDS011;22694;51.040;3.684;2022-09-20T04:06:33;2.72;;;1.67;;
36709;SDS011;22694;51.040;3.684;2022-09-20T04:20:00;2.35;;;1.23;;
36709;SDS011;22694;51.040;3.684;2022-09-20T04:22:45;3.92;;;1.50;;
36709;SDS011;22694;51.040;3.684;2022-09-20T04:25:17;2.53;;;1.27;;
36709;SDS011;22694;51.040;3.684;2022-09-20T04:27:51;2.25;;;1.35;;
36709;SDS011;22694;51.040;3.684;2022-09-20T04:30:23;4.15;;;1.58;;
36709;SDS011;22694;51.040;3.684;2022-09-20T04:33:00;1.98;;;1.40;;
36709;SDS011;22694;51.040;3.684;2022-09-20T04:38:41;3.75;;;1.38;;
36709;SDS011;22694;51.040;3.684;2022-09-20T04:52:03;2.45;;;1.20;;
36709;SDS011;22694;51.040;3.684;2022-09-20T05:00:06;2.58;;;1.38;;
36709;SDS011;22694;51.040;3.684;2022-09-20T05:06:27;3.00;;;1.30;;
36709;SDS011;22694;51.040;3.684;2022-09-20T05:11:07;2.75;;;1.38;;
36709;SDS011;22694;51.040;3.684;2022-09-20T05:16:53;4.05;;;1.58;;
36709;SDS011;22694;51.040;3.684;2022-09-20T05:19:37;1.45;;;1.35;;
36709;SDS011;22694;51.040;3.684;2022-09-20T05:30:11;1.23;;;1.10;;
36709;SDS011;22694;51.040;3.684;2022-09-20T05:32:52;2.15;;;1.23;;
36709;SDS011;22694;51.040;3.684;2022-09-20T05:41:15;3.75;;;1.67;;
36709;SDS011;22694;51.040;3.684;2022-09-20T05:46:44;2.70;;;1.50;;
36709;SDS011;22694;51.040;3.684;2022-09-20T06:00:41;3.60;;;1.70;;
36709;SDS011;22694;51.040;3.684;2022-09-20T06:11:16;4.03;;;1.83;;
36709;SDS011;22694;51.040;3.684;2022-09-20T06:16:53;2.60;;;1.70;;
36709;SDS011;22694;51.040;3.684;2022-09-20T06:19:43;4.13;;;1.92;;
36709;SDS011;22694;51.040;3.684;2022-09-20T06:22:27;3.10;;;1.80;;
36709;SDS011;22694;51.040;3.684;2022-09-20T06:28:18;2.75;;;1.80;;
36709;SDS011;22694;51.040;3.684;2022-09-20T06:30:46;2.92;;;1.90;;
36709;SDS011;22694;51.040;3.684;2022-09-20T06:41:51;3.63;;;1.83;;
36709;SDS011;22694;51.040;3.684;2022-09-20T06:44:18;2.05;;;1.83;;
36709;SDS011;22694;51.040;3.684;2022-09-20T06:46:43;3.45;;;2.20;;
36709;SDS011;22694;51.040;3.684;2022-09-20T06:49:09;2.40;;;2.17;;
36709;SDS011;22694;51.040;3.684;2022-09-20T06:51:36;4.07;;;2.40;;
36709;SDS011;22694;51.040;3.684;2022-09-20T06:54:03;2.20;;;2.00;;
36709;SDS011;22694;51.040;3.684;2022-09-20T06:56:31;2.28;;;1.80;;
36709;SDS011;22694;51.040;3.684;2022-09-20T06:59:00;4.05;;;1.92;;
36709;SDS011;22694;51.040;3.684;2022-09-20T07:01:27;2.80;;;1.88;;
36709;SDS011;22694;51.040;3.684;2022-09-20T07:03:52;3.88;;;2.03;;
36709;SDS011;22694;51.040;3.684;2022-09-20T07:06:18;3.13;;;1.90;;
36709;SDS011;22694;51.040;3.684;2022-09-20T07:08:47;3.25;;;2.10;;
36709;SDS011;22694;51.040;3.684;2022-09-20T07:11:14;2.72;;;2.05;;
36709;SDS011;22694;51.040;3.684;2022-09-20T07:13:41;2.17;;;1.85;;
36709;SDS011;22694;51.040;3.684;2022-09-20T07:16:10;2.60;;;1.85;;
36709;SDS011;22694;51.040;3.684;2022-09-20T07:18:38;1.63;;;1.52;;
36709;SDS011;22694;51.040;3.684;2022-09-20T07:21:05;2.25;;;2.00;;
36709;SDS011;22694;51.040;3.684;2022-09-20T07:23:31;3.33;;;2.00;;
36709;SDS011;22694;51.040;3.684;2022-09-20T07:25:56;4.45;;;2.10;;
36709;SDS011;22694;51.040;3.684;2022-09-20T07:28:24;2.95;;;2.20;;
36709;SDS011;22694;51.040;3.684;2022-09-20T07:30:51;3.17;;;1.95;;
36709;SDS011;22694;51.040;3.684;2022-09-20T07:33:16;2.58;;;1.70;;
36709;SDS011;22694;51.040;3.684;2022-09-20T07:35:46;5.75;;;2.10;;
36709;SDS011;22694;51.040;3.684;2022-09-20T07:38:12;2.45;;;1.80;;
36709;SDS011;22694;51.040;3.684;2022-09-20T07:40:39;2.45;;;1.83;;
36709;SDS011;22694;51.040;3.684;2022-09-20T07:43:05;6.32;;;2.10;;
36709;SDS011;22694;51.040;3.684;2022-09-20T07:45:31;3.25;;;1.83;;
36709;SDS011;22694;51.040;3.684;2022-09-20T07:47:58;1.85;;;1.58;;
36709;SDS011;22694;51.040;3.684;2022-09-20T07:50:24;3.00;;;1.77;;
36709;SDS011;22694;51.040;3.684;2022-09-20T07:52:49;3.83;;;1.90;;
36709;SDS011;22694;51.040;3.684;2022-09-20T07:55:15;3.72;;;2.08;;
36709;SDS011;22694;51.040;3.684;2022-09-20T07:57:41;9.02;;;2.80;;
36709;SDS011;22694;51.040;3.684;2022-09-20T08:00:07;6.20;;;2.83;;
36709;SDS011;22694;51.040;3.684;2022-09-20T08:02:34;3.70;;;2.08;;
36709;SDS011;22694;51.040;3.684;2022-09-20T08:04:59;5.40;;;2.53;;
36709;SDS011;22694;51.040;3.684;2022-09-20T08:07:25;20.15;;;5.63;;
36709;SDS011;22694;51.040;3.684;2022-09-20T08:09:51;20.15;;;6.53;;
36709;SDS011;22694;51.040;3.684;2022-09-20T08:12:17;15.50;;;4.88;;
36709;SDS011;22694;51.040;3.684;2022-09-20T08:14:43;9.35;;;3.55;;
36709;SDS011;22694;51.040;3.684;2022-09-20T08:17:09;8.95;;;3.25;;
36709;SDS011;22694;51.040;3.684;2022-09-20T08:19:35;7.55;;;2.90;;
36709;SDS011;22694;51.040;3.684;2022-09-20T08:22:04;9.80;;;2.95;;
36709;SDS011;22694;51.040;3.684;2022-09-20T08:24:30;8.80;;;2.88;;
36709;SDS011;22694;51.040;3.684;2022-09-20T08:26:56;7.55;;;2.60;;
36709;SDS011;22694;51.040;3.684;2022-09-20T08:29:23;7.15;;;3.03;;
36709;SDS011;22694;51.040;3.684;2022-09-20T08:31:49;11.38;;;3.10;;
36709;SDS011;22694;51.040;3.684;2022-09-20T08:34:16;5.47;;;2.30;;
36709;SDS011;22694;51.040;3.684;2022-09-20T08:36:43;8.20;;;2.50;;
36709;SDS011;22694;51.040;3.684;2022-09-20T08:39:11;8.23;;;2.88;;
36709;SDS011;22694;51.040;3.684;2022-09-20T08:44:30;6.78;;;2.53;;
36709;SDS011;22694;51.040;3.684;2022-09-20T08:47:04;6.55;;;2.55;;
36709;SDS011;22694;51.040;3.684;2022-09-20T08:49:42;6.18;;;2.05;;
36709;SDS011;22694;51.040;3.684;2022-09-20T08:52:10;5.82;;;2.15;;
36709;SDS011;22694;51.040;3.684;2022-09-20T08:55:01;5.05;;;2.10;;
36709;SDS011;22694;51.040;3.684;2022-09-20T08:57:37;5.68;;;2.17;;
36709;SDS011;22694;51.040;3.684;2022-09-20T09:00:14;3.90;;;2.30;;
36709;SDS011;22694;51.040;3.684;2022-09-20T09:02:42;4.32;;;1.90;;
36709;SDS011;22694;51.040;3.684;2022-09-20T09:05:15;4.00;;;2.05;;
36709;SDS011;22694;51.040;3.684;2022-09-20T09:07:58;5.18;;;1.60;;
36709;SDS011;22694;51.040;3.684;2022-09-20T09:10:28;4.43;;;1.98;;
36709;SDS011;22694;51.040;3.684;2022-09-20T09:15:27;5.35;;;1.77;;
36709;SDS011;22694;51.040;3.684;2022-09-20T09:17:58;4.30;;;1.80;;
36709;SDS011;22694;51.040;3.684;2022-09-20T09:20:24;5.50;;;2.00;;
36709;SDS011;22694;51.040;3.684;2022-09-20T09:25:27;6.95;;;2.00;;
36709;SDS011;22694;51.040;3.684;2022-09-20T09:35:53;3.45;;;1.75;;
36709;SDS011;22694;51.040;3.684;2022-09-20T09:38:24;5.07;;;1.75;;
36709;SDS011;22694;51.040;3.684;2022-09-20T09:40:52;3.72;;;1.50;;
36709;SDS011;22694;51.040;3.684;2022-09-20T09:43:29;5.70;;;1.67;;
36709;SDS011;22694;51.040;3.684;2022-09-20T09:46:14;4.30;;;1.60;;
36709;SDS011;22694;51.040;3.684;2022-09-20T09:54:30;3.17;;;1.40;;
36709;SDS011;22694;51.040;3.684;2022-09-20T09:59:43;4.60;;;1.70;;
36709;SDS011;22694;51.040;3.684;2022-09-20T10:09:53;3.28;;;1.50;;
36709;SDS011;22694;51.040;3.684;2022-09-20T10:18:10;2.40;;;1.40;;
36709;SDS011;22694;51.040;3.684;2022-09-20T10:20:57;3.83;;;1.20;;
36709;SDS011;22694;51.040;3.684;2022-09-20T10:24:12;4.78;;;1.80;;
36709;SDS011;22694;51.040;3.684;2022-09-20T10:40:36;3.03;;;1.20;;
36709;SDS011;22694;51.040;3.684;2022-09-20T10:46:16;1.95;;;1.15;;
36709;SDS011;22694;51.040;3.684;2022-09-20T10:56:45;5.18;;;1.40;;
36709;SDS011;22694;51.040;3.684;2022-09-20T11:04:45;3.08;;;1.33;;
36709;SDS011;22694;51.040;3.684;2022-09-20T11:10:05;2.30;;;1.30;;
36709;SDS011;22694;51.040;3.684;2022-09-20T11:12:48;4.22;;;1.42;;
36709;SDS011;22694;51.040;3.684;2022-09-20T11:15:29;2.67;;;1.30;;
36709;SDS011;22694;51.040;3.684;2022-09-20T11:20:57;2.33;;;1.00;;
36709;SDS011;22694;51.040;3.684;2022-09-20T11:23:46;2.63;;;1.30;;
36709;SDS011;22694;51.040;3.684;2022-09-20T11:26:26;2.15;;;0.90;;
36709;SDS011;22694;51.040;3.684;2022-09-20T11:29:24;3.22;;;1.33;;
36709;SDS011;22694;51.040;3.684;2022-09-20T11:32:28;1.67;;;0.90;;
36709;SDS011;22694;51.040;3.684;2022-09-20T11:35:02;1.48;;;0.85;;
36709;SDS011;22694;51.040;3.684;2022-09-20T11:37:54;1.95;;;1.00;;
36709;SDS011;22694;51.040;3.684;2022-09-20T11:40:30;1.83;;;1.15;;
36709;SDS011;22694;51.040;3.684;2022-09-20T11:43:03;1.13;;;0.93;;
36709;SDS011;22694;51.040;3.684;2022-09-20T11:45:31;1.85;;;0.70;;
36709;SDS011;22694;51.040;3.684;2022-09-20T11:48:05;2.00;;;1.27;;
36709;SDS011;22694;51.040;3.684;2022-09-20T11:56:29;1.35;;;0.68;;
36709;SDS011;22694;51.040;3.684;2022-09-20T11:58:57;2.33;;;0.90;;
36709;SDS011;22694;51.040;3.684;2022-09-20T12:01:28;1.42;;;0.90;;
36709;SDS011;22694;51.040;3.684;2022-09-20T12:03:56;1.52;;;1.05;;
36709;SDS011;22694;51.040;3.684;2022-09-20T12:06:30;1.70;;;1.02;;
36709;SDS011;22694;51.040;3.684;2022-09-20T12:09:00;2.08;;;1.05;;
36709;SDS011;22694;51.040;3.684;2022-09-20T12:11:29;4.18;;;1.30;;
36709;SDS011;22694;51.040;3.684;2022-09-20T12:14:02;1.92;;;1.02;;
36709;SDS011;22694;51.040;3.684;2022-09-20T12:16:35;3.10;;;0.75;;
36709;SDS011;22694;51.040;3.684;2022-09-20T12:19:04;1.92;;;0.80;;
36709;SDS011;22694;51.040;3.684;2022-09-20T12:24:22;1.42;;;0.80;;
36709;SDS011;22694;51.040;3.684;2022-09-20T12:26:55;1.45;;;0.80;;
36709;SDS011;22694;51.040;3.684;2022-09-20T12:31:59;1.35;;;0.80;;
36709;SDS011;22694;51.040;3.684;2022-09-20T12:34:35;1.80;;;0.80;;
36709;SDS011;22694;51.040;3.684;2022-09-20T12:39:29;2.03;;;0.98;;
36709;SDS011;22694;51.040;3.684;2022-09-20T12:42:02;2.45;;;0.90;;
36709;SDS011;22694;51.040;3.684;2022-09-20T12:44:38;3.90;;;0.73;;
36709;SDS011;22694;51.040;3.684;2022-09-20T12:47:28;1.25;;;0.47;;
36709;SDS011;22694;51.040;3.684;2022-09-20T12:50:03;1.13;;;0.70;;
36709;SDS011;22694;51.040;3.684;2022-09-20T12:52:56;2.22;;;0.80;;
36709;SDS011;22694;51.040;3.684;2022-09-20T12:55:32;3.20;;;0.73;;
36709;SDS011;22694;51.040;3.684;2022-09-20T13:00:38;1.55;;;0.60;;
36709;SDS011;22694;51.040;3.684;2022-09-20T13:03:09;1.27;;;0.60;;
36709;SDS011;22694;51.040;3.684;2022-09-20T13:05:48;1.58;;;0.50;;
36709;SDS011;22694;51.040;3.684;2022-09-20T13:11:44;0.93;;;0.50;;
36709;SDS011;22694;51.040;3.684;2022-09-20T13:14:28;1.20;;;0.65;;
36709;SDS011;22694;51.040;3.684;2022-09-20T13:16:56;1.02;;;0.50;;
36709;SDS011;22694;51.040;3.684;2022-09-20T13:19:31;1.35;;;0.60;;
36709;SDS011;22694;51.040;3.684;2022-09-20T13:24:31;0.93;;;0.50;;
36709;SDS011;22694;51.040;3.684;2022-09-20T13:27:00;1.70;;;0.70;;
36709;SDS011;22694;51.040;3.684;2022-09-20T13:29:31;0.90;;;0.60;;
36709;SDS011;22694;51.040;3.684;2022-09-20T13:32:17;2.58;;;0.95;;
36709;SDS011;22694;51.040;3.684;2022-09-20T13:35:03;2.15;;;0.73;;
36709;SDS011;22694;51.040;3.684;2022-09-20T13:37:30;1.23;;;0.52;;
36709;SDS011;22694;51.040;3.684;2022-09-20T13:39:57;0.90;;;0.50;;
36709;SDS011;22694;51.040;3.684;2022-09-20T13:42:23;1.00;;;0.60;;
36709;SDS011;22694;51.040;3.684;2022-09-20T13:44:53;2.05;;;0.70;;
36709;SDS011;22694;51.040;3.684;2022-09-20T13:47:24;0.75;;;0.55;;
36709;SDS011;22694;51.040;3.684;2022-09-20T13:49:52;0.90;;;0.40;;
36709;SDS011;22694;51.040;3.684;2022-09-20T13:52:25;1.67;;;0.68;;
36709;SDS011;22694;51.040;3.684;2022-09-20T13:54:53;1.05;;;0.75;;
36709;SDS011;22694;51.040;3.684;2022-09-20T13:57:23;1.10;;;0.80;;
36709;SDS011;22694;51.040;3.684;2022-09-20T13:59:51;3.55;;;1.33;;
36709;SDS011;22694;51.040;3.684;2022-09-20T14:02:31;1.63;;;0.82;;
36709;SDS011;22694;51.040;3.684;2022-09-20T14:05:01;8.55;;;5.05;;
36709;SDS011;22694;51.040;3.684;2022-09-20T14:07:29;14.05;;;10.20;;
36709;SDS011;22694;51.040;3.684;2022-09-20T14:09:56;16.73;;;12.32;;
36709;SDS011;22694;51.040;3.684;2022-09-20T14:12:23;13.35;;;9.40;;
36709;SDS011;22694;51.040;3.684;2022-09-20T14:14:50;10.63;;;7.97;;
36709;SDS011;22694;51.040;3.684;2022-09-20T14:17:17;10.40;;;7.80;;
36709;SDS011;22694;51.040;3.684;2022-09-20T14:19:46;8.75;;;7.35;;
36709;SDS011;22694;51.040;3.684;2022-09-20T14:22:32;13.80;;;7.50;;
36709;SDS011;22694;51.040;3.684;2022-09-20T14:25:02;7.93;;;6.88;;
36709;SDS011;22694;51.040;3.684;2022-09-20T14:27:46;10.05;;;6.25;;
36709;SDS011;22694;51.040;3.684;2022-09-20T14:30:30;7.57;;;5.88;;
36709;SDS011;22694;51.040;3.684;2022-09-20T14:33:00;9.55;;;6.25;;
36709;SDS011;22694;51.040;3.684;2022-09-20T14:35:28;7.25;;;5.47;;
36709;SDS011;22694;51.040;3.684;2022-09-20T14:37:57;8.20;;;5.10;;
36709;SDS011;22694;51.040;3.684;2022-09-20T14:40:26;11.38;;;6.80;;
36709;SDS011;22694;51.040;3.684;2022-09-20T14:43:28;7.00;;;5.03;;
36709;SDS011;22694;51.040;3.684;2022-09-20T14:46:02;5.63;;;4.38;;
36709;SDS011;22694;51.040;3.684;2022-09-20T14:48:34;5.88;;;4.00;;
36709;SDS011;22694;51.040;3.684;2022-09-20T14:53:40;6.40;;;4.00;;
36709;SDS011;22694;51.040;3.684;2022-09-20T14:56:10;8.50;;;4.50;;
36709;SDS011;22694;51.040;3.684;2022-09-20T15:01:35;5.35;;;2.88;;
36709;SDS011;22694;51.040;3.684;2022-09-20T15:04:06;5.63;;;1.98;;
36709;SDS011;22694;51.040;3.684;2022-09-20T15:06:36;2.60;;;1.40;;
36709;SDS011;22694;51.040;3.684;2022-09-20T15:09:04;3.58;;;1.20;;
36709;SDS011;22694;51.040;3.684;2022-09-20T15:11:30;3.05;;;1.02;;
36709;SDS011;22694;51.040;3.684;2022-09-20T15:13:55;2.17;;;0.77;;
36709;SDS011;22694;51.040;3.684;2022-09-20T15:16:21;1.48;;;0.60;;
36709;SDS011;22694;51.040;3.684;2022-09-20T15:18:47;2.40;;;0.80;;
36709;SDS011;22694;51.040;3.684;2022-09-20T15:21:12;3.50;;;1.90;;
36709;SDS011;22694;51.040;3.684;2022-09-20T15:23:38;4.50;;;2.47;;
36709;SDS011;22694;51.040;3.684;2022-09-20T15:26:05;3.33;;;1.92;;
36709;SDS011;22694;51.040;3.684;2022-09-20T15:28:34;4.00;;;2.20;;
36709;SDS011;22694;51.040;3.684;2022-09-20T15:31:00;4.82;;;2.45;;
36709;SDS011;22694;51.040;3.684;2022-09-20T15:33:27;2.58;;;1.83;;
36709;SDS011;22694;51.040;3.684;2022-09-20T15:35:54;3.38;;;1.77;;
36709;SDS011;22694;51.040;3.684;2022-09-20T15:38:20;2.67;;;1.23;;
36709;SDS011;22694;51.040;3.684;2022-09-20T15:40:47;2.20;;;1.20;;
36709;SDS011;22694;51.040;3.684;2022-09-20T15:43:14;1.85;;;0.82;;
36709;SDS011;22694;51.040;3.684;2022-09-20T15:45:48;1.70;;;0.70;;
36709;SDS011;22694;51.040;3.684;2022-09-20T15:48:19;3.20;;;0.60;;
36709;SDS011;22694;51.040;3.684;2022-09-20T15:51:04;2.28;;;0.60;;
36709;SDS011;22694;51.040;3.684;2022-09-20T15:53:35;2.03;;;0.50;;
36709;SDS011;22694;51.040;3.684;2022-09-20T15:56:24;1.67;;;0.75;;
36709;SDS011;22694;51.040;3.684;2022-09-20T15:58:59;1.48;;;0.50;;
36709;SDS011;22694;51.040;3.684;2022-09-20T16:01:48;2.42;;;0.70;;
36709;SDS011;22694;51.040;3.684;2022-09-20T16:04:17;2.38;;;0.50;;
36709;SDS011;22694;51.040;3.684;2022-09-20T16:06:44;1.60;;;0.57;;
36709;SDS011;22694;51.040;3.684;2022-09-20T16:09:11;1.65;;;0.63;;
36709;SDS011;22694;51.040;3.684;2022-09-20T16:11:37;1.40;;;0.50;;
36709;SDS011;22694;51.040;3.684;2022-09-20T16:14:04;4.50;;;0.50;;
36709;SDS011;22694;51.040;3.684;2022-09-20T16:16:30;2.70;;;0.50;;
36709;SDS011;22694;51.040;3.684;2022-09-20T16:18:57;0.40;;;0.30;;
36709;SDS011;22694;51.040;3.684;2022-09-20T16:21:42;2.53;;;0.50;;
36709;SDS011;22694;51.040;3.684;2022-09-20T16:24:11;2.50;;;0.40;;
36709;SDS011;22694;51.040;3.684;2022-09-20T16:26:36;3.15;;;0.50;;
36709;SDS011;22694;51.040;3.684;2022-09-20T16:29:03;2.88;;;0.70;;
36709;SDS011;22694;51.040;3.684;2022-09-20T16:33:57;1.83;;;0.60;;
36709;SDS011;22694;51.040;3.684;2022-09-20T16:36:24;1.10;;;0.50;;
36709;SDS011;22694;51.040;3.684;2022-09-20T16:38:50;2.60;;;1.02;;
36709;SDS011;22694;51.040;3.684;2022-09-20T16:41:19;2.40;;;0.98;;
36709;SDS011;22694;51.040;3.684;2022-09-20T16:43:45;1.92;;;0.70;;
36709;SDS011;22694;51.040;3.684;2022-09-20T16:46:16;2.22;;;0.60;;
36709;SDS011;22694;51.040;3.684;2022-09-20T16:48:48;2.42;;;0.68;;
36709;SDS011;22694;51.040;3.684;2022-09-20T16:51:17;1.33;;;0.50;;
36709;SDS011;22694;51.040;3.684;2022-09-20T16:53:44;1.92;;;0.75;;
36709;SDS011;22694;51.040;3.684;2022-09-20T16:56:16;1.90;;;0.90;;
36709;SDS011;22694;51.040;3.684;2022-09-20T16:58:42;2.08;;;0.70;;
36709;SDS011;22694;51.040;3.684;2022-09-20T17:01:08;1.27;;;0.60;;
36709;SDS011;22694;51.040;3.684;2022-09-20T17:03:35;1.80;;;0.80;;
36709;SDS011;22694;51.040;3.684;2022-09-20T17:06:04;2.45;;;0.70;;
36709;SDS011;22694;51.040;3.684;2022-09-20T17:08:30;1.45;;;0.75;;
36709;SDS011;22694;51.040;3.684;2022-09-20T17:11:06;3.13;;;0.80;;
36709;SDS011;22694;51.040;3.684;2022-09-20T17:13:38;1.38;;;0.82;;
36709;SDS011;22694;51.040;3.684;2022-09-20T17:16:47;2.00;;;0.75;;
36709;SDS011;22694;51.040;3.684;2022-09-20T17:18:56;2.53;;;0.75;;
36709;SDS011;22694;51.040;3.684;2022-09-20T17:21:24;0.85;;;0.63;;
36709;SDS011;22694;51.040;3.684;2022-09-20T17:23:51;1.95;;;1.00;;
36709;SDS011;22694;51.040;3.684;2022-09-20T17:26:22;1.20;;;0.60;;
36709;SDS011;22694;51.040;3.684;2022-09-20T17:28:52;1.85;;;0.70;;
36709;SDS011;22694;51.040;3.684;2022-09-20T17:31:26;1.23;;;0.80;;
36709;SDS011;22694;51.040;3.684;2022-09-20T17:33:57;1.70;;;0.70;;
36709;SDS011;22694;51.040;3.684;2022-09-20T17:36:32;1.65;;;0.60;;
36709;SDS011;22694;51.040;3.684;2022-09-20T17:39:00;1.42;;;0.80;;
36709;SDS011;22694;51.040;3.684;2022-09-20T17:41:27;1.58;;;0.50;;
36709;SDS011;22694;51.040;3.684;2022-09-20T17:43:56;2.35;;;0.80;;
36709;SDS011;22694;51.040;3.684;2022-09-20T17:46:29;1.33;;;0.80;;
36709;SDS011;22694;51.040;3.684;2022-09-20T17:48:57;0.63;;;0.63;;
36709;SDS011;22694;51.040;3.684;2022-09-20T17:51:26;1.80;;;0.65;;
36709;SDS011;22694;51.040;3.684;2022-09-20T17:54:02;1.45;;;1.02;;
36709;SDS011;22694;51.040;3.684;2022-09-20T17:56:29;2.50;;;0.75;;
36709;SDS011;22694;51.040;3.684;2022-09-20T17:58:59;3.08;;;0.70;;
36709;SDS011;22694;51.040;3.684;2022-09-20T18:01:26;3.47;;;0.98;;
36709;SDS011;22694;51.040;3.684;2022-09-20T18:03:53;1.92;;;0.70;;
36709;SDS011;22694;51.040;3.684;2022-09-20T18:06:23;0.60;;;0.50;;
36709;SDS011;22694;51.040;3.684;2022-09-20T18:08:53;1.50;;;0.70;;
36709;SDS011;22694;51.040;3.684;2022-09-20T18:11:32;1.23;;;0.60;;
36709;SDS011;22694;51.040;3.684;2022-09-20T18:14:00;1.00;;;0.75;;
36709;SDS011;22694;51.040;3.684;2022-09-20T18:16:27;1.27;;;0.80;;
36709;SDS011;22694;51.040;3.684;2022-09-20T18:18:54;2.65;;;0.90;;
36709;SDS011;22694;51.040;3.684;2022-09-20T18:21:21;1.95;;;0.70;;
36709;SDS011;22694;51.040;3.684;2022-09-20T18:23:48;1.95;;;0.70;;
36709;SDS011;22694;51.040;3.684;2022-09-20T18:26:17;3.35;;;0.80;;
36709;SDS011;22694;51.040;3.684;2022-09-20T18:28:57;1.48;;;0.60;;
36709;SDS011;22694;51.040;3.684;2022-09-20T18:31:38;2.05;;;1.13;;
36709;SDS011;22694;51.040;3.684;2022-09-20T18:34:26;1.98;;;0.63;;
36709;SDS011;22694;51.040;3.684;2022-09-20T18:36:56;1.77;;;0.70;;
36709;SDS011;22694;51.040;3.684;2022-09-20T18:39:26;1.80;;;0.70;;
36709;SDS011;22694;51.040;3.684;2022-09-20T18:41:54;1.40;;;0.60;;
36709;SDS011;22694;51.040;3.684;2022-09-20T18:44:20;1.50;;;0.80;;
36709;SDS011;22694;51.040;3.684;2022-09-20T18:46:46;1.30;;;0.77;;
36709;SDS011;22694;51.040;3.684;2022-09-20T18:49:13;1.63;;;0.80;;
36709;SDS011;22694;51.040;3.684;2022-09-20T18:51:41;1.13;;;0.73;;
36709;SDS011;22694;51.040;3.684;2022-09-20T18:54:08;3.22;;;0.75;;
36709;SDS011;22694;51.040;3.684;2022-09-20T18:56:35;1.65;;;0.60;;
36709;SDS011;22694;51.040;3.684;2022-09-20T18:59:18;1.25;;;0.70;;
36709;SDS011;22694;51.040;3.684;2022-09-20T19:07:39;1.83;;;0.80;;
36709;SDS011;22694;51.040;3.684;2022-09-20T19:26:50;1.13;;;0.65;;
36709;SDS011;22694;51.040;3.684;2022-09-20T19:29:23;0.80;;;0.60;;
36709;SDS011;22694;51.040;3.684;2022-09-20T19:31:54;3.55;;;0.90;;
36709;SDS011;22694;51.040;3.684;2022-09-20T19:34:24;1.17;;;0.70;;
36709;SDS011;22694;51.040;3.684;2022-09-20T19:50:24;1.90;;;1.00;;
36709;SDS011;22694;51.040;3.684;2022-09-20T19:53:01;2.60;;;1.00;;
36709;SDS011;22694;51.040;3.684;2022-09-20T19:55:28;1.55;;;1.00;;
36709;SDS011;22694;51.040;3.684;2022-09-20T19:57:59;2.55;;;1.15;;
36709;SDS011;22694;51.040;3.684;2022-09-20T20:00:26;1.65;;;1.20;;
36709;SDS011;22694;51.040;3.684;2022-09-20T20:02:52;2.78;;;1.27;;
36709;SDS011;22694;51.040;3.684;2022-09-20T20:05:19;2.65;;;1.27;;
36709;SDS011;22694;51.040;3.684;2022-09-20T20:16:26;1.88;;;1.55;;
36709;SDS011;22694;51.040;3.684;2022-09-20T20:19:22;2.95;;;1.70;;
36709;SDS011;22694;51.040;3.684;2022-09-20T20:28:14;1.80;;;1.55;;
36709;SDS011;22694;51.040;3.684;2022-09-20T20:30:40;2.45;;;2.10;;
36709;SDS011;22694;51.040;3.684;2022-09-20T20:33:06;3.78;;;2.15;;
36709;SDS011;22694;51.040;3.684;2022-09-20T20:35:37;7.70;;;1.85;;
36709;SDS011;22694;51.040;3.684;2022-09-20T20:38:03;2.55;;;1.90;;
36709;SDS011;22694;51.040;3.684;2022-09-20T20:40:35;4.88;;;2.17;;
36709;SDS011;22694;51.040;3.684;2022-09-20T20:43:02;5.85;;;2.30;;
36709;SDS011;22694;51.040;3.684;2022-09-20T20:45:30;4.40;;;2.35;;
36709;SDS011;22694;51.040;3.684;2022-09-20T20:47:56;4.35;;;2.20;;
36709;SDS011;22694;51.040;3.684;2022-09-20T20:50:23;3.75;;;2.38;;
36709;SDS011;22694;51.040;3.684;2022-09-20T20:52:53;4.38;;;2.60;;
36709;SDS011;22694;51.040;3.684;2022-09-20T20:55:19;5.13;;;2.60;;
36709;SDS011;22694;51.040;3.684;2022-09-20T20:57:50;3.10;;;2.38;;
36709;SDS011;22694;51.040;3.684;2022-09-20T21:00:21;3.28;;;2.88;;
36709;SDS011;22694;51.040;3.684;2022-09-20T21:02:46;4.72;;;2.40;;
36709;SDS011;22694;51.040;3.684;2022-09-20T21:05:12;3.58;;;2.88;;
36709;SDS011;22694;51.040;3.684;2022-09-20T21:07:39;3.00;;;2.70;;
36709;SDS011;22694;51.040;3.684;2022-09-20T21:10:05;6.90;;;2.70;;
36709;SDS011;22694;51.040;3.684;2022-09-20T21:12:32;4.40;;;2.60;;
36709;SDS011;22694;51.040;3.684;2022-09-20T21:14:57;2.95;;;2.53;;
36709;SDS011;22694;51.040;3.684;2022-09-20T21:17:23;3.38;;;3.00;;